sensor_id;sensor_type;location;lat;lon;timestamp;pressure;altitude;pressure_sealevel;temperature
64916;BMP280;51427;-27.442;153.014;2023-02-27T00:00:14;101386.47;;;30.55
64916;BMP280;51427;-27.442;153.014;2023-02-27T00:02:48;101392.94;;;30.14
64916;BMP280;51427;-27.442;153.014;2023-02-27T00:05:16;101393.41;;;30.17
64916;BMP280;51427;-27.442;153.014;2023-02-27T00:07:44;101383.81;;;29.21
64916;BMP280;51427;-27.442;153.014;2023-02-27T00:10:14;101373.13;;;29.92
64916;BMP280;51427;-27.442;153.014;2023-02-27T00:12:41;101372.44;;;29.68
64916;BMP280;51427;-27.442;153.014;2023-02-27T00:15:14;101379.94;;;29.85
64916;BMP280;51427;-27.442;153.014;2023-02-27T00:17:42;101368.25;;;30.34
64916;BMP280;51427;-27.442;153.014;2023-02-27T00:20:11;101369.06;;;29.37
64916;BMP280;51427;-27.442;153.014;2023-02-27T00:22:40;101365.84;;;29.05
64916;BMP280;51427;-27.442;153.014;2023-02-27T00:25:08;101366.66;;;29.36
64916;BMP280;51427;-27.442;153.014;2023-02-27T00:27:35;101343.59;;;29.65
64916;BMP280;51427;-27.442;153.014;2023-02-27T00:30:08;101343.66;;;28.11
64916;BMP280;51427;-27.442;153.014;2023-02-27T00:32:35;101341.56;;;29.82
64916;BMP280;51427;-27.442;153.014;2023-02-27T00:35:07;101342.09;;;28.79
64916;BMP280;51427;-27.442;153.014;2023-02-27T00:37:36;101345.09;;;28.29
64916;BMP280;51427;-27.442;153.014;2023-02-27T00:40:03;101329.81;;;28.89
64916;BMP280;51427;-27.442;153.014;2023-02-27T00:42:31;101335.19;;;28.64
64916;BMP280;51427;-27.442;153.014;2023-02-27T00:44:58;101333.00;;;28.37
64916;BMP280;51427;-27.442;153.014;2023-02-27T00:47:25;101330.66;;;28.74
64916;BMP280;51427;-27.442;153.014;2023-02-27T00:49:53;101325.28;;;28.99
64916;BMP280;51427;-27.442;153.014;2023-02-27T00:52:20;101324.94;;;29.32
64916;BMP280;51427;-27.442;153.014;2023-02-27T00:54:47;101320.25;;;29.36
64916;BMP280;51427;-27.442;153.014;2023-02-27T00:57:15;101309.19;;;28.89
64916;BMP280;51427;-27.442;153.014;2023-02-27T00:59:42;101301.03;;;28.78
64916;BMP280;51427;-27.442;153.014;2023-02-27T01:02:10;101311.25;;;29.76
64916;BMP280;51427;-27.442;153.014;2023-02-27T01:04:37;101300.03;;;29.69
64916;BMP280;51427;-27.442;153.014;2023-02-27T01:07:04;101293.41;;;30.12
64916;BMP280;51427;-27.442;153.014;2023-02-27T01:09:31;101286.44;;;29.98
64916;BMP280;51427;-27.442;153.014;2023-02-27T01:11:59;101289.72;;;30.43
64916;BMP280;51427;-27.442;153.014;2023-02-27T01:14:26;101289.53;;;30.59
64916;BMP280;51427;-27.442;153.014;2023-02-27T01:16:53;101274.84;;;30.59
64916;BMP280;51427;-27.442;153.014;2023-02-27T01:19:20;101276.13;;;29.75
64916;BMP280;51427;-27.442;153.014;2023-02-27T01:21:48;101278.53;;;30.28
64916;BMP280;51427;-27.442;153.014;2023-02-27T01:24:15;101276.25;;;30.47
64916;BMP280;51427;-27.442;153.014;2023-02-27T01:26:44;101267.91;;;31.09
64916;BMP280;51427;-27.442;153.014;2023-02-27T01:29:13;101273.28;;;30.07
64916;BMP280;51427;-27.442;153.014;2023-02-27T01:31:41;101265.63;;;29.10
64916;BMP280;51427;-27.442;153.014;2023-02-27T01:34:08;101256.66;;;30.10
64916;BMP280;51427;-27.442;153.014;2023-02-27T01:36:36;101254.81;;;30.96
64916;BMP280;51427;-27.442;153.014;2023-02-27T01:39:03;101253.22;;;30.95
64916;BMP280;51427;-27.442;153.014;2023-02-27T01:41:30;101249.75;;;30.74
64916;BMP280;51427;-27.442;153.014;2023-02-27T01:44:00;101241.78;;;30.12
64916;BMP280;51427;-27.442;153.014;2023-02-27T01:46:29;101238.75;;;30.37
64916;BMP280;51427;-27.442;153.014;2023-02-27T01:49:01;101226.69;;;30.87
64916;BMP280;51427;-27.442;153.014;2023-02-27T01:51:33;101215.25;;;31.37
64916;BMP280;51427;-27.442;153.014;2023-02-27T01:54:04;101221.28;;;30.67
64916;BMP280;51427;-27.442;153.014;2023-02-27T01:56:32;101233.47;;;29.87
64916;BMP280;51427;-27.442;153.014;2023-02-27T01:59:03;101214.34;;;29.96
64916;BMP280;51427;-27.442;153.014;2023-02-27T02:01:33;101217.28;;;30.08
64916;BMP280;51427;-27.442;153.014;2023-02-27T02:06:35;101199.41;;;29.33
64916;BMP280;51427;-27.442;153.014;2023-02-27T02:09:04;101195.22;;;30.19
64916;BMP280;51427;-27.442;153.014;2023-02-27T02:11:32;101190.03;;;30.83
64916;BMP280;51427;-27.442;153.014;2023-02-27T02:14:00;101187.53;;;30.26
64916;BMP280;51427;-27.442;153.014;2023-02-27T02:16:44;101180.50;;;30.49
64916;BMP280;51427;-27.442;153.014;2023-02-27T02:39:58;101127.81;;;32.14
64916;BMP280;51427;-27.442;153.014;2023-02-27T02:45:23;101128.28;;;31.09
64916;BMP280;51427;-27.442;153.014;2023-02-27T02:50:28;101120.75;;;30.72
64916;BMP280;51427;-27.442;153.014;2023-02-27T02:53:24;101124.91;;;30.88
64916;BMP280;51427;-27.442;153.014;2023-02-27T02:58:43;101101.72;;;31.76
64916;BMP280;51427;-27.442;153.014;2023-02-27T03:01:37;101099.00;;;31.56
64916;BMP280;51427;-27.442;153.014;2023-02-27T03:04:09;101103.16;;;30.61
64916;BMP280;51427;-27.442;153.014;2023-02-27T03:06:45;101093.19;;;30.59
64916;BMP280;51427;-27.442;153.014;2023-02-27T03:11:59;101088.88;;;31.61
64916;BMP280;51427;-27.442;153.014;2023-02-27T03:14:33;101084.75;;;31.40
64916;BMP280;51427;-27.442;153.014;2023-02-27T03:17:19;101086.97;;;30.95
64916;BMP280;51427;-27.442;153.014;2023-02-27T03:19:58;101095.41;;;30.12
64916;BMP280;51427;-27.442;153.014;2023-02-27T03:22:35;101091.25;;;29.97
64916;BMP280;51427;-27.442;153.014;2023-02-27T03:25:06;101088.88;;;30.30
64916;BMP280;51427;-27.442;153.014;2023-02-27T03:27:39;101085.91;;;30.48
64916;BMP280;51427;-27.442;153.014;2023-02-27T03:30:17;101084.16;;;30.48
64916;BMP280;51427;-27.442;153.014;2023-02-27T03:35:28;101072.66;;;30.71
64916;BMP280;51427;-27.442;153.014;2023-02-27T03:38:47;101070.97;;;30.43
64916;BMP280;51427;-27.442;153.014;2023-02-27T03:41:54;101066.88;;;29.99
64916;BMP280;51427;-27.442;153.014;2023-02-27T03:46:32;101072.16;;;29.91
64916;BMP280;51427;-27.442;153.014;2023-02-27T03:49:00;101059.97;;;30.56
64916;BMP280;51427;-27.442;153.014;2023-02-27T03:51:28;101055.56;;;30.70
64916;BMP280;51427;-27.442;153.014;2023-02-27T03:54:04;101053.72;;;30.44
64916;BMP280;51427;-27.442;153.014;2023-02-27T03:56:39;101058.19;;;30.21
64916;BMP280;51427;-27.442;153.014;2023-02-27T03:59:07;101055.00;;;30.19
64916;BMP280;51427;-27.442;153.014;2023-02-27T04:01:34;101053.88;;;29.35
64916;BMP280;51427;-27.442;153.014;2023-02-27T04:04:10;101046.63;;;29.82
64916;BMP280;51427;-27.442;153.014;2023-02-27T04:06:39;101051.72;;;30.11
64916;BMP280;51427;-27.442;153.014;2023-02-27T04:12:51;101038.47;;;30.49
64916;BMP280;51427;-27.442;153.014;2023-02-27T04:15:49;101032.91;;;30.16
64916;BMP280;51427;-27.442;153.014;2023-02-27T04:22:04;101037.69;;;29.99
64916;BMP280;51427;-27.442;153.014;2023-02-27T04:24:21;101051.84;;;29.45
64916;BMP280;51427;-27.442;153.014;2023-02-27T04:27:02;101043.69;;;29.70
64916;BMP280;51427;-27.442;153.014;2023-02-27T04:29:52;101042.03;;;30.13
64916;BMP280;51427;-27.442;153.014;2023-02-27T04:35:17;101030.69;;;29.50
64916;BMP280;51427;-27.442;153.014;2023-02-27T04:40:28;101015.47;;;30.33
64916;BMP280;51427;-27.442;153.014;2023-02-27T04:43:00;101011.94;;;30.40
64916;BMP280;51427;-27.442;153.014;2023-02-27T04:45:29;101022.50;;;29.89
64916;BMP280;51427;-27.442;153.014;2023-02-27T04:48:08;101014.66;;;29.68
64916;BMP280;51427;-27.442;153.014;2023-02-27T04:50:50;101005.75;;;30.35
64916;BMP280;51427;-27.442;153.014;2023-02-27T04:53:31;101010.41;;;29.47
64916;BMP280;51427;-27.442;153.014;2023-02-27T04:56:07;101012.53;;;29.86
64916;BMP280;51427;-27.442;153.014;2023-02-27T04:58:51;101015.97;;;29.21
64916;BMP280;51427;-27.442;153.014;2023-02-27T05:01:25;101016.78;;;29.22
64916;BMP280;51427;-27.442;153.014;2023-02-27T05:03:56;101015.19;;;29.21
64916;BMP280;51427;-27.442;153.014;2023-02-27T05:06:30;101003.63;;;29.17
64916;BMP280;51427;-27.442;153.014;2023-02-27T05:09:07;101020.91;;;29.31
64916;BMP280;51427;-27.442;153.014;2023-02-27T05:12:33;100997.50;;;28.81
64916;BMP280;51427;-27.442;153.014;2023-02-27T05:14:48;100995.84;;;29.54
64916;BMP280;51427;-27.442;153.014;2023-02-27T05:17:27;100992.63;;;29.23
64916;BMP280;51427;-27.442;153.014;2023-02-27T05:19:55;100996.94;;;29.08
64916;BMP280;51427;-27.442;153.014;2023-02-27T05:25:14;100977.50;;;29.98
64916;BMP280;51427;-27.442;153.014;2023-02-27T05:30:58;100989.00;;;28.95
64916;BMP280;51427;-27.442;153.014;2023-02-27T05:33:39;100986.41;;;28.67
64916;BMP280;51427;-27.442;153.014;2023-02-27T05:36:22;100993.41;;;29.23
64916;BMP280;51427;-27.442;153.014;2023-02-27T05:39:03;100978.53;;;29.11
64916;BMP280;51427;-27.442;153.014;2023-02-27T05:41:46;100983.75;;;28.89
64916;BMP280;51427;-27.442;153.014;2023-02-27T05:44:20;100976.25;;;29.45
64916;BMP280;51427;-27.442;153.014;2023-02-27T05:46:53;100986.25;;;28.97
64916;BMP280;51427;-27.442;153.014;2023-02-27T05:49:37;100986.09;;;28.62
64916;BMP280;51427;-27.442;153.014;2023-02-27T05:52:10;100985.66;;;28.50
64916;BMP280;51427;-27.442;153.014;2023-02-27T06:02:38;100987.91;;;28.53
64916;BMP280;51427;-27.442;153.014;2023-02-27T06:05:06;100994.78;;;28.61
64916;BMP280;51427;-27.442;153.014;2023-02-27T06:07:34;100991.28;;;28.54
64916;BMP280;51427;-27.442;153.014;2023-02-27T06:10:02;100998.66;;;28.12
64916;BMP280;51427;-27.442;153.014;2023-02-27T06:12:31;100992.25;;;28.08
64916;BMP280;51427;-27.442;153.014;2023-02-27T06:14:58;100993.81;;;28.17
64916;BMP280;51427;-27.442;153.014;2023-02-27T06:17:25;100990.31;;;28.55
64916;BMP280;51427;-27.442;153.014;2023-02-27T06:19:52;100994.97;;;28.37
64916;BMP280;51427;-27.442;153.014;2023-02-27T06:22:19;100996.72;;;28.59
64916;BMP280;51427;-27.442;153.014;2023-02-27T06:24:47;100995.56;;;28.61
64916;BMP280;51427;-27.442;153.014;2023-02-27T06:27:14;101005.94;;;28.53
64916;BMP280;51427;-27.442;153.014;2023-02-27T06:29:41;100992.03;;;28.62
64916;BMP280;51427;-27.442;153.014;2023-02-27T06:32:08;100999.31;;;28.06
64916;BMP280;51427;-27.442;153.014;2023-02-27T06:34:35;100996.31;;;28.25
64916;BMP280;51427;-27.442;153.014;2023-02-27T06:37:03;100997.94;;;28.48
64916;BMP280;51427;-27.442;153.014;2023-02-27T06:39:30;100998.09;;;28.25
64916;BMP280;51427;-27.442;153.014;2023-02-27T06:41:58;100993.75;;;28.25
64916;BMP280;51427;-27.442;153.014;2023-02-27T06:44:25;101000.97;;;28.29
64916;BMP280;51427;-27.442;153.014;2023-02-27T06:46:52;101003.53;;;28.07
64916;BMP280;51427;-27.442;153.014;2023-02-27T06:49:19;101004.50;;;27.98
64916;BMP280;51427;-27.442;153.014;2023-02-27T06:51:47;100991.13;;;28.11
64916;BMP280;51427;-27.442;153.014;2023-02-27T06:54:14;100996.09;;;28.04
64916;BMP280;51427;-27.442;153.014;2023-02-27T06:56:41;101000.31;;;27.97
64916;BMP280;51427;-27.442;153.014;2023-02-27T06:59:08;101002.94;;;27.89
64916;BMP280;51427;-27.442;153.014;2023-02-27T07:01:36;100998.38;;;27.99
64916;BMP280;51427;-27.442;153.014;2023-02-27T07:04:04;101000.97;;;27.91
64916;BMP280;51427;-27.442;153.014;2023-02-27T07:06:31;101000.06;;;27.84
64916;BMP280;51427;-27.442;153.014;2023-02-27T07:08:58;101004.34;;;27.62
64916;BMP280;51427;-27.442;153.014;2023-02-27T07:11:25;101016.59;;;27.52
64916;BMP280;51427;-27.442;153.014;2023-02-27T07:13:53;101010.63;;;27.59
64916;BMP280;51427;-27.442;153.014;2023-02-27T07:16:20;101000.19;;;27.61
64916;BMP280;51427;-27.442;153.014;2023-02-27T07:18:47;101011.13;;;27.47
64916;BMP280;51427;-27.442;153.014;2023-02-27T07:21:14;101016.44;;;27.53
64916;BMP280;51427;-27.442;153.014;2023-02-27T07:23:42;101005.97;;;27.47
64916;BMP280;51427;-27.442;153.014;2023-02-27T07:26:10;101016.13;;;27.40
64916;BMP280;51427;-27.442;153.014;2023-02-27T07:28:38;101014.66;;;27.38
64916;BMP280;51427;-27.442;153.014;2023-02-27T07:31:06;101018.53;;;27.26
64916;BMP280;51427;-27.442;153.014;2023-02-27T07:33:33;101020.50;;;27.08
64916;BMP280;51427;-27.442;153.014;2023-02-27T07:36:01;101025.34;;;27.03
64916;BMP280;51427;-27.442;153.014;2023-02-27T07:38:29;101027.25;;;26.93
64916;BMP280;51427;-27.442;153.014;2023-02-27T07:40:58;101017.28;;;26.98
64916;BMP280;51427;-27.442;153.014;2023-02-27T07:43:25;101024.03;;;26.76
64916;BMP280;51427;-27.442;153.014;2023-02-27T07:45:53;101031.72;;;26.84
64916;BMP280;51427;-27.442;153.014;2023-02-27T07:48:21;101043.44;;;26.62
64916;BMP280;51427;-27.442;153.014;2023-02-27T07:50:48;101046.16;;;26.61
64916;BMP280;51427;-27.442;153.014;2023-02-27T07:53:16;101049.34;;;26.47
64916;BMP280;51427;-27.442;153.014;2023-02-27T07:55:44;101047.75;;;26.38
64916;BMP280;51427;-27.442;153.014;2023-02-27T07:58:12;101053.81;;;26.29
64916;BMP280;51427;-27.442;153.014;2023-02-27T08:00:39;101066.47;;;26.31
64916;BMP280;51427;-27.442;153.014;2023-02-27T08:03:10;101062.56;;;26.19
64916;BMP280;51427;-27.442;153.014;2023-02-27T08:05:38;101054.69;;;26.12
64916;BMP280;51427;-27.442;153.014;2023-02-27T08:08:06;101060.13;;;26.09
64916;BMP280;51427;-27.442;153.014;2023-02-27T08:10:33;101060.13;;;26.09
64916;BMP280;51427;-27.442;153.014;2023-02-27T08:13:01;101063.47;;;26.10
64916;BMP280;51427;-27.442;153.014;2023-02-27T08:15:28;101071.16;;;26.10
64916;BMP280;51427;-27.442;153.014;2023-02-27T08:17:58;101073.06;;;26.00
64916;BMP280;51427;-27.442;153.014;2023-02-27T08:20:26;101076.56;;;25.91
64916;BMP280;51427;-27.442;153.014;2023-02-27T08:22:53;101079.59;;;25.87
64916;BMP280;51427;-27.442;153.014;2023-02-27T08:25:21;101086.91;;;25.82
64916;BMP280;51427;-27.442;153.014;2023-02-27T08:27:48;101087.44;;;25.85
64916;BMP280;51427;-27.442;153.014;2023-02-27T08:30:16;101092.06;;;25.82
64916;BMP280;51427;-27.442;153.014;2023-02-27T08:32:44;101094.91;;;25.79
64916;BMP280;51427;-27.442;153.014;2023-02-27T08:35:12;101099.09;;;25.80
64916;BMP280;51427;-27.442;153.014;2023-02-27T08:37:40;101102.41;;;25.72
64916;BMP280;51427;-27.442;153.014;2023-02-27T08:40:08;101115.38;;;25.71
64916;BMP280;51427;-27.442;153.014;2023-02-27T08:42:37;101118.13;;;25.77
64916;BMP280;51427;-27.442;153.014;2023-02-27T08:45:05;101117.00;;;25.72
64916;BMP280;51427;-27.442;153.014;2023-02-27T08:47:32;101118.47;;;25.57
64916;BMP280;51427;-27.442;153.014;2023-02-27T08:50:00;101118.25;;;25.68
64916;BMP280;51427;-27.442;153.014;2023-02-27T08:52:30;101126.00;;;25.76
64916;BMP280;51427;-27.442;153.014;2023-02-27T08:54:58;101121.41;;;25.62
64916;BMP280;51427;-27.442;153.014;2023-02-27T08:57:26;101126.28;;;25.65
64916;BMP280;51427;-27.442;153.014;2023-02-27T08:59:54;101133.97;;;25.65
64916;BMP280;51427;-27.442;153.014;2023-02-27T09:02:21;101125.44;;;25.64
64916;BMP280;51427;-27.442;153.014;2023-02-27T09:04:52;101138.66;;;25.60
64916;BMP280;51427;-27.442;153.014;2023-02-27T09:07:20;101136.53;;;25.65
64916;BMP280;51427;-27.442;153.014;2023-02-27T09:09:48;101136.66;;;25.46
64916;BMP280;51427;-27.442;153.014;2023-02-27T09:12:16;101143.66;;;25.61
64916;BMP280;51427;-27.442;153.014;2023-02-27T09:14:43;101143.41;;;25.47
64916;BMP280;51427;-27.442;153.014;2023-02-27T09:17:11;101149.53;;;25.54
64916;BMP280;51427;-27.442;153.014;2023-02-27T09:19:39;101155.16;;;25.57
64916;BMP280;51427;-27.442;153.014;2023-02-27T09:22:06;101148.44;;;25.56
64916;BMP280;51427;-27.442;153.014;2023-02-27T09:24:34;101147.63;;;25.56
64916;BMP280;51427;-27.442;153.014;2023-02-27T09:27:04;101152.03;;;25.46
64916;BMP280;51427;-27.442;153.014;2023-02-27T09:29:32;101146.91;;;25.46
64916;BMP280;51427;-27.442;153.014;2023-02-27T09:31:59;101153.59;;;25.39
64916;BMP280;51427;-27.442;153.014;2023-02-27T09:34:30;101160.97;;;25.42
64916;BMP280;51427;-27.442;153.014;2023-02-27T09:37:01;101158.84;;;25.38
64916;BMP280;51427;-27.442;153.014;2023-02-27T09:39:28;101160.63;;;25.37
64916;BMP280;51427;-27.442;153.014;2023-02-27T09:42:05;101153.34;;;25.50
64916;BMP280;51427;-27.442;153.014;2023-02-27T09:44:52;101154.44;;;25.48
64916;BMP280;51427;-27.442;153.014;2023-02-27T09:47:45;101164.69;;;25.48
64916;BMP280;51427;-27.442;153.014;2023-02-27T09:53:04;101181.19;;;25.45
64916;BMP280;51427;-27.442;153.014;2023-02-27T09:55:36;101182.47;;;25.49
64916;BMP280;51427;-27.442;153.014;2023-02-27T10:00:46;101194.66;;;25.47
64916;BMP280;51427;-27.442;153.014;2023-02-27T10:11:09;101202.41;;;25.38
64916;BMP280;51427;-27.442;153.014;2023-02-27T10:16:27;101201.56;;;25.29
64916;BMP280;51427;-27.442;153.014;2023-02-27T10:19:00;101202.28;;;25.39
64916;BMP280;51427;-27.442;153.014;2023-02-27T10:21:36;101206.44;;;25.40
64916;BMP280;51427;-27.442;153.014;2023-02-27T10:26:43;101208.34;;;25.21
64916;BMP280;51427;-27.442;153.014;2023-02-27T10:29:31;101219.09;;;25.24
64916;BMP280;51427;-27.442;153.014;2023-02-27T10:32:13;101218.50;;;25.30
64916;BMP280;51427;-27.442;153.014;2023-02-27T10:34:44;101224.38;;;25.40
64916;BMP280;51427;-27.442;153.014;2023-02-27T10:37:19;101228.31;;;25.17
64916;BMP280;51427;-27.442;153.014;2023-02-27T10:39:59;101226.69;;;25.16
64916;BMP280;51427;-27.442;153.014;2023-02-27T10:42:35;101230.22;;;25.15
64916;BMP280;51427;-27.442;153.014;2023-02-27T10:45:14;101220.72;;;25.25
64916;BMP280;51427;-27.442;153.014;2023-02-27T10:47:43;101228.97;;;25.02
64916;BMP280;51427;-27.442;153.014;2023-02-27T10:53:01;101229.84;;;25.10
64916;BMP280;51427;-27.442;153.014;2023-02-27T10:55:31;101233.31;;;25.19
64916;BMP280;51427;-27.442;153.014;2023-02-27T10:58:01;101241.34;;;25.06
64916;BMP280;51427;-27.442;153.014;2023-02-27T11:00:45;101248.16;;;25.15
64916;BMP280;51427;-27.442;153.014;2023-02-27T11:03:21;101243.69;;;25.17
64916;BMP280;51427;-27.442;153.014;2023-02-27T11:06:05;101241.78;;;25.37
64916;BMP280;51427;-27.442;153.014;2023-02-27T11:08:34;101241.41;;;25.14
64916;BMP280;51427;-27.442;153.014;2023-02-27T11:11:10;101240.78;;;25.30
64916;BMP280;51427;-27.442;153.014;2023-02-27T11:13:43;101242.75;;;25.18
64916;BMP280;51427;-27.442;153.014;2023-02-27T11:16:14;101246.47;;;25.06
64916;BMP280;51427;-27.442;153.014;2023-02-27T11:18:44;101242.06;;;25.16
64916;BMP280;51427;-27.442;153.014;2023-02-27T11:21:27;101241.34;;;25.41
64916;BMP280;51427;-27.442;153.014;2023-02-27T11:26:41;101259.19;;;24.99
64916;BMP280;51427;-27.442;153.014;2023-02-27T11:29:20;101253.25;;;24.89
64916;BMP280;51427;-27.442;153.014;2023-02-27T11:31:57;101258.38;;;24.89
64916;BMP280;51427;-27.442;153.014;2023-02-27T11:34:34;101254.66;;;24.83
64916;BMP280;51427;-27.442;153.014;2023-02-27T11:37:29;101251.75;;;24.96
64916;BMP280;51427;-27.442;153.014;2023-02-27T11:40:28;101248.38;;;25.05
64916;BMP280;51427;-27.442;153.014;2023-02-27T11:42:54;101252.53;;;24.96
64916;BMP280;51427;-27.442;153.014;2023-02-27T11:45:37;101245.28;;;24.92
64916;BMP280;51427;-27.442;153.014;2023-02-27T11:48:20;101249.72;;;24.99
64916;BMP280;51427;-27.442;153.014;2023-02-27T11:51:05;101253.84;;;24.83
64916;BMP280;51427;-27.442;153.014;2023-02-27T11:57:16;101252.97;;;24.92
64916;BMP280;51427;-27.442;153.014;2023-02-27T12:05:46;101252.69;;;24.95
64916;BMP280;51427;-27.442;153.014;2023-02-27T12:08:05;101242.72;;;24.92
64916;BMP280;51427;-27.442;153.014;2023-02-27T12:10:54;101248.22;;;24.70
64916;BMP280;51427;-27.442;153.014;2023-02-27T12:13:29;101256.97;;;24.77
64916;BMP280;51427;-27.442;153.014;2023-02-27T12:16:11;101253.06;;;24.73
64916;BMP280;51427;-27.442;153.014;2023-02-27T12:21:39;101250.31;;;24.57
64916;BMP280;51427;-27.442;153.014;2023-02-27T12:24:37;101248.31;;;24.51
64916;BMP280;51427;-27.442;153.014;2023-02-27T12:27:21;101257.16;;;24.66
64916;BMP280;51427;-27.442;153.014;2023-02-27T12:32:48;101260.84;;;24.81
64916;BMP280;51427;-27.442;153.014;2023-02-27T12:37:51;101252.22;;;24.82
64916;BMP280;51427;-27.442;153.014;2023-02-27T12:40:21;101253.66;;;24.58
64916;BMP280;51427;-27.442;153.014;2023-02-27T12:45:34;101249.53;;;24.57
64916;BMP280;51427;-27.442;153.014;2023-02-27T12:57:41;101265.13;;;24.90
64916;BMP280;51427;-27.442;153.014;2023-02-27T13:00:20;101265.81;;;24.82
64916;BMP280;51427;-27.442;153.014;2023-02-27T13:16:20;101279.16;;;24.86
64916;BMP280;51427;-27.442;153.014;2023-02-27T13:24:32;101265.28;;;24.52
64916;BMP280;51427;-27.442;153.014;2023-02-27T13:30:13;101259.97;;;24.36
64916;BMP280;51427;-27.442;153.014;2023-02-27T13:37:58;101240.94;;;24.29
64916;BMP280;51427;-27.442;153.014;2023-02-27T13:40:35;101233.16;;;24.21
64916;BMP280;51427;-27.442;153.014;2023-02-27T13:45:53;101226.25;;;24.50
64916;BMP280;51427;-27.442;153.014;2023-02-27T13:48:43;101223.69;;;24.50
64916;BMP280;51427;-27.442;153.014;2023-02-27T14:02:03;101225.66;;;24.11
64916;BMP280;51427;-27.442;153.014;2023-02-27T14:04:34;101214.81;;;23.90
64916;BMP280;51427;-27.442;153.014;2023-02-27T14:07:06;101212.41;;;23.79
64916;BMP280;51427;-27.442;153.014;2023-02-27T14:09:41;101203.63;;;24.00
64916;BMP280;51427;-27.442;153.014;2023-02-27T14:12:33;101208.56;;;24.20
64916;BMP280;51427;-27.442;153.014;2023-02-27T14:15:06;101210.41;;;24.37
64916;BMP280;51427;-27.442;153.014;2023-02-27T14:18:00;101210.03;;;24.23
64916;BMP280;51427;-27.442;153.014;2023-02-27T14:23:17;101200.47;;;24.15
64916;BMP280;51427;-27.442;153.014;2023-02-27T14:25:50;101203.31;;;24.12
64916;BMP280;51427;-27.442;153.014;2023-02-27T14:28:34;101199.50;;;24.35
64916;BMP280;51427;-27.442;153.014;2023-02-27T14:31:05;101203.16;;;24.33
64916;BMP280;51427;-27.442;153.014;2023-02-27T14:33:47;101203.22;;;24.50
64916;BMP280;51427;-27.442;153.014;2023-02-27T14:38:44;101200.06;;;24.56
64916;BMP280;51427;-27.442;153.014;2023-02-27T14:43:53;101194.91;;;23.84
64916;BMP280;51427;-27.442;153.014;2023-02-27T14:46:36;101180.38;;;23.84
64916;BMP280;51427;-27.442;153.014;2023-02-27T14:49:26;101175.41;;;23.83
64916;BMP280;51427;-27.442;153.014;2023-02-27T14:51:55;101177.59;;;24.14
64916;BMP280;51427;-27.442;153.014;2023-02-27T14:54:23;101180.66;;;24.36
64916;BMP280;51427;-27.442;153.014;2023-02-27T14:56:59;101177.28;;;24.26
64916;BMP280;51427;-27.442;153.014;2023-02-27T14:59:50;101175.19;;;24.12
64916;BMP280;51427;-27.442;153.014;2023-02-27T15:05:12;101172.44;;;24.42
64916;BMP280;51427;-27.442;153.014;2023-02-27T15:07:45;101172.03;;;24.37
64916;BMP280;51427;-27.442;153.014;2023-02-27T15:10:23;101163.84;;;24.24
64916;BMP280;51427;-27.442;153.014;2023-02-27T15:13:14;101158.59;;;24.26
64916;BMP280;51427;-27.442;153.014;2023-02-27T15:15:44;101151.06;;;24.24
64916;BMP280;51427;-27.442;153.014;2023-02-27T15:18:14;101160.25;;;24.17
64916;BMP280;51427;-27.442;153.014;2023-02-27T15:20:41;101147.59;;;24.52
64916;BMP280;51427;-27.442;153.014;2023-02-27T15:23:26;101150.13;;;24.25
64916;BMP280;51427;-27.442;153.014;2023-02-27T15:25:56;101140.06;;;24.14
64916;BMP280;51427;-27.442;153.014;2023-02-27T15:28:35;101142.16;;;23.92
64916;BMP280;51427;-27.442;153.014;2023-02-27T15:31:04;101124.06;;;24.03
64916;BMP280;51427;-27.442;153.014;2023-02-27T15:33:33;101131.53;;;24.23
64916;BMP280;51427;-27.442;153.014;2023-02-27T15:36:01;101136.09;;;24.29
64916;BMP280;51427;-27.442;153.014;2023-02-27T15:38:34;101143.19;;;24.45
64916;BMP280;51427;-27.442;153.014;2023-02-27T15:41:03;101140.63;;;24.45
64916;BMP280;51427;-27.442;153.014;2023-02-27T15:43:32;101143.63;;;24.31
64916;BMP280;51427;-27.442;153.014;2023-02-27T15:45:59;101139.59;;;24.38
64916;BMP280;51427;-27.442;153.014;2023-02-27T15:48:27;101127.97;;;24.43
64916;BMP280;51427;-27.442;153.014;2023-02-27T15:51:07;101121.56;;;24.30
64916;BMP280;51427;-27.442;153.014;2023-02-27T15:53:35;101123.69;;;24.34
64916;BMP280;51427;-27.442;153.014;2023-02-27T15:56:14;101115.94;;;24.17
64916;BMP280;51427;-27.442;153.014;2023-02-27T15:58:48;101114.81;;;24.38
64916;BMP280;51427;-27.442;153.014;2023-02-27T16:01:27;101107.81;;;24.31
64916;BMP280;51427;-27.442;153.014;2023-02-27T16:03:58;101112.59;;;24.16
64916;BMP280;51427;-27.442;153.014;2023-02-27T16:06:34;101100.56;;;24.00
64916;BMP280;51427;-27.442;153.014;2023-02-27T16:09:03;101096.69;;;23.96
64916;BMP280;51427;-27.442;153.014;2023-02-27T16:11:34;101094.03;;;23.88
64916;BMP280;51427;-27.442;153.014;2023-02-27T16:14:03;101096.41;;;23.99
64916;BMP280;51427;-27.442;153.014;2023-02-27T16:16:36;101102.81;;;24.03
64916;BMP280;51427;-27.442;153.014;2023-02-27T16:19:36;101094.00;;;23.97
64916;BMP280;51427;-27.442;153.014;2023-02-27T16:22:14;101094.03;;;23.88
64916;BMP280;51427;-27.442;153.014;2023-02-27T16:24:42;101092.78;;;23.92
64916;BMP280;51427;-27.442;153.014;2023-02-27T16:27:27;101085.59;;;24.05
64916;BMP280;51427;-27.442;153.014;2023-02-27T16:29:56;101086.28;;;24.07
64916;BMP280;51427;-27.442;153.014;2023-02-27T16:32:40;101083.66;;;24.16
64916;BMP280;51427;-27.442;153.014;2023-02-27T16:37:44;101082.28;;;23.95
64916;BMP280;51427;-27.442;153.014;2023-02-27T16:42:41;101086.31;;;23.97
64916;BMP280;51427;-27.442;153.014;2023-02-27T16:45:23;101092.00;;;24.18
64916;BMP280;51427;-27.442;153.014;2023-02-27T16:47:53;101082.63;;;24.09